sensor_id;sensor_type;location;lat;lon;timestamp;temperature;humidity
3758;DHT22;1894;51.038;13.692;2023-05-31T00:01:34;12.00;99.90
3758;DHT22;1894;51.038;13.692;2023-05-31T00:04:02;11.90;99.90
3758;DHT22;1894;51.038;13.692;2023-05-31T00:06:29;11.90;99.90
3758;DHT22;1894;51.038;13.692;2023-05-31T00:08:56;11.80;99.90
3758;DHT22;1894;51.038;13.692;2023-05-31T00:11:23;11.80;99.90
3758;DHT22;1894;51.038;13.692;2023-05-31T00:13:53;11.80;99.90
3758;DHT22;1894;51.038;13.692;2023-05-31T00:16:20;11.80;99.90
3758;DHT22;1894;51.038;13.692;2023-05-31T00:19:07;11.70;99.90
3758;DHT22;1894;51.038;13.692;2023-05-31T00:21:35;11.70;99.90
3758;DHT22;1894;51.038;13.692;2023-05-31T00:24:02;11.60;99.90
3758;DHT22;1894;51.038;13.692;2023-05-31T00:26:29;11.60;99.90
3758;DHT22;1894;51.038;13.692;2023-05-31T00:28:56;11.60;99.90
3758;DHT22;1894;51.038;13.692;2023-05-31T00:31:23;11.50;99.90
3758;DHT22;1894;51.038;13.692;2023-05-31T00:33:50;11.60;99.90
3758;DHT22;1894;51.038;13.692;2023-05-31T00:36:17;11.70;99.90
3758;DHT22;1894;51.038;13.692;2023-05-31T00:38:44;11.70;99.90
3758;DHT22;1894;51.038;13.692;2023-05-31T00:41:11;11.70;99.90
3758;DHT22;1894;51.038;13.692;2023-05-31T00:43:38;11.70;99.90
3758;DHT22;1894;51.038;13.692;2023-05-31T00:46:07;11.70;99.90
3758;DHT22;1894;51.038;13.692;2023-05-31T00:48:35;11.60;99.90
3758;DHT22;1894;51.038;13.692;2023-05-31T00:51:05;11.60;99.90
3758;DHT22;1894;51.038;13.692;2023-05-31T00:53:32;11.60;99.90
3758;DHT22;1894;51.038;13.692;2023-05-31T00:56:00;11.60;99.90
3758;DHT22;1894;51.038;13.692;2023-05-31T00:58:31;11.40;99.90
3758;DHT22;1894;51.038;13.692;2023-05-31T01:01:03;11.30;99.90
3758;DHT22;1894;51.038;13.692;2023-05-31T01:03:30;11.20;99.90
3758;DHT22;1894;51.038;13.692;2023-05-31T01:05:58;11.00;99.90
3758;DHT22;1894;51.038;13.692;2023-05-31T01:08:25;10.90;99.90
3758;DHT22;1894;51.038;13.692;2023-05-31T01:10:53;10.90;99.90
3758;DHT22;1894;51.038;13.692;2023-05-31T01:13:37;10.90;99.90
3758;DHT22;1894;51.038;13.692;2023-05-31T01:16:32;10.80;99.90
3758;DHT22;1894;51.038;13.692;2023-05-31T01:19:05;10.90;99.90
3758;DHT22;1894;51.038;13.692;2023-05-31T01:21:48;10.80;99.90
3758;DHT22;1894;51.038;13.692;2023-05-31T01:25:08;10.70;99.90
3758;DHT22;1894;51.038;13.692;2023-05-31T01:27:38;10.80;99.90
3758;DHT22;1894;51.038;13.692;2023-05-31T01:30:07;10.80;99.90
3758;DHT22;1894;51.038;13.692;2023-05-31T01:32:36;10.70;99.90
3758;DHT22;1894;51.038;13.692;2023-05-31T01:35:04;10.60;99.90
3758;DHT22;1894;51.038;13.692;2023-05-31T01:37:31;10.60;99.90
3758;DHT22;1894;51.038;13.692;2023-05-31T01:39:58;10.50;99.90
3758;DHT22;1894;51.038;13.692;2023-05-31T01:42:26;10.50;99.90
3758;DHT22;1894;51.038;13.692;2023-05-31T01:44:55;10.50;99.90
3758;DHT22;1894;51.038;13.692;2023-05-31T01:47:23;10.50;99.90
3758;DHT22;1894;51.038;13.692;2023-05-31T01:49:51;10.50;99.90
3758;DHT22;1894;51.038;13.692;2023-05-31T01:52:19;10.50;99.90
3758;DHT22;1894;51.038;13.692;2023-05-31T01:54:47;10.50;99.90
3758;DHT22;1894;51.038;13.692;2023-05-31T01:57:15;10.50;99.90
3758;DHT22;1894;51.038;13.692;2023-05-31T01:59:45;10.30;99.90
3758;DHT22;1894;51.038;13.692;2023-05-31T02:02:13;10.30;99.90
3758;DHT22;1894;51.038;13.692;2023-05-31T02:04:43;10.30;99.90
3758;DHT22;1894;51.038;13.692;2023-05-31T02:07:10;10.30;99.90
3758;DHT22;1894;51.038;13.692;2023-05-31T02:09:41;10.30;99.90
3758;DHT22;1894;51.038;13.692;2023-05-31T02:12:08;10.10;99.90
3758;DHT22;1894;51.038;13.692;2023-05-31T02:14:35;10.10;99.90
3758;DHT22;1894;51.038;13.692;2023-05-31T02:17:02;10.10;99.90
3758;DHT22;1894;51.038;13.692;2023-05-31T02:19:29;10.10;99.90
3758;DHT22;1894;51.038;13.692;2023-05-31T02:21:58;10.00;99.90
3758;DHT22;1894;51.038;13.692;2023-05-31T02:24:26;10.00;99.90
3758;DHT22;1894;51.038;13.692;2023-05-31T02:26:54;9.90;99.90
3758;DHT22;1894;51.038;13.692;2023-05-31T02:29:24;9.90;99.90
3758;DHT22;1894;51.038;13.692;2023-05-31T02:31:51;10.00;99.90
3758;DHT22;1894;51.038;13.692;2023-05-31T02:34:20;10.10;99.90
3758;DHT22;1894;51.038;13.692;2023-05-31T02:36:47;10.10;99.90
3758;DHT22;1894;51.038;13.692;2023-05-31T02:39:14;9.90;99.90
3758;DHT22;1894;51.038;13.692;2023-05-31T02:41:41;10.00;99.90
3758;DHT22;1894;51.038;13.692;2023-05-31T02:44:08;9.90;99.90
3758;DHT22;1894;51.038;13.692;2023-05-31T02:46:37;9.90;99.90
3758;DHT22;1894;51.038;13.692;2023-05-31T02:49:04;9.80;99.90
3758;DHT22;1894;51.038;13.692;2023-05-31T02:51:33;9.90;99.90
3758;DHT22;1894;51.038;13.692;2023-05-31T02:54:26;9.90;99.90
3758;DHT22;1894;51.038;13.692;2023-05-31T02:56:53;9.70;99.90
3758;DHT22;1894;51.038;13.692;2023-05-31T02:59:23;9.70;99.90
3758;DHT22;1894;51.038;13.692;2023-05-31T03:01:52;9.80;99.90
3758;DHT22;1894;51.038;13.692;2023-05-31T03:04:51;9.60;99.90
3758;DHT22;1894;51.038;13.692;2023-05-31T03:07:21;9.50;99.90
3758;DHT22;1894;51.038;13.692;2023-05-31T03:09:49;9.40;99.90
3758;DHT22;1894;51.038;13.692;2023-05-31T03:12:16;9.40;99.90
3758;DHT22;1894;51.038;13.692;2023-05-31T03:14:43;9.40;99.90
3758;DHT22;1894;51.038;13.692;2023-05-31T03:17:11;9.40;99.90
3758;DHT22;1894;51.038;13.692;2023-05-31T03:19:38;9.50;99.90
3758;DHT22;1894;51.038;13.692;2023-05-31T03:22:05;9.50;99.90
3758;DHT22;1894;51.038;13.692;2023-05-31T03:24:33;9.60;99.90
3758;DHT22;1894;51.038;13.692;2023-05-31T03:27:00;9.50;99.90
3758;DHT22;1894;51.038;13.692;2023-05-31T03:29:28;9.40;99.90
3758;DHT22;1894;51.038;13.692;2023-05-31T03:31:58;9.50;99.90
3758;DHT22;1894;51.038;13.692;2023-05-31T03:34:26;9.60;99.90
3758;DHT22;1894;51.038;13.692;2023-05-31T03:36:54;9.70;99.90
3758;DHT22;1894;51.038;13.692;2023-05-31T03:39:35;9.80;99.90
3758;DHT22;1894;51.038;13.692;2023-05-31T03:42:04;9.80;99.90
3758;DHT22;1894;51.038;13.692;2023-05-31T03:44:32;9.70;99.90
3758;DHT22;1894;51.038;13.692;2023-05-31T03:46:59;9.80;99.90
3758;DHT22;1894;51.038;13.692;2023-05-31T03:49:27;9.90;99.90
3758;DHT22;1894;51.038;13.692;2023-05-31T03:51:55;10.00;99.90
3758;DHT22;1894;51.038;13.692;2023-05-31T03:54:22;10.00;99.90
3758;DHT22;1894;51.038;13.692;2023-05-31T03:56:49;10.00;99.90
3758;DHT22;1894;51.038;13.692;2023-05-31T03:59:17;10.00;99.90
3758;DHT22;1894;51.038;13.692;2023-05-31T04:01:44;10.10;99.90
3758;DHT22;1894;51.038;13.692;2023-05-31T04:04:11;10.10;99.90
3758;DHT22;1894;51.038;13.692;2023-05-31T04:06:38;10.20;99.90
3758;DHT22;1894;51.038;13.692;2023-05-31T04:09:05;10.30;99.90
3758;DHT22;1894;51.038;13.692;2023-05-31T04:11:32;10.40;99.90
3758;DHT22;1894;51.038;13.692;2023-05-31T04:13:59;10.50;99.90
3758;DHT22;1894;51.038;13.692;2023-05-31T04:16:27;10.70;99.90
3758;DHT22;1894;51.038;13.692;2023-05-31T04:18:56;10.90;99.90
3758;DHT22;1894;51.038;13.692;2023-05-31T04:21:23;11.00;99.90
3758;DHT22;1894;51.038;13.692;2023-05-31T04:23:52;11.00;99.90
3758;DHT22;1894;51.038;13.692;2023-05-31T04:26:19;11.00;99.90
3758;DHT22;1894;51.038;13.692;2023-05-31T04:28:48;11.10;99.90
3758;DHT22;1894;51.038;13.692;2023-05-31T04:31:19;11.20;99.90
3758;DHT22;1894;51.038;13.692;2023-05-31T04:33:46;11.40;99.90
3758;DHT22;1894;51.038;13.692;2023-05-31T04:36:14;11.60;99.90
3758;DHT22;1894;51.038;13.692;2023-05-31T04:38:42;11.60;99.90
3758;DHT22;1894;51.038;13.692;2023-05-31T04:41:09;11.80;99.90
3758;DHT22;1894;51.038;13.692;2023-05-31T04:43:37;12.00;99.90
3758;DHT22;1894;51.038;13.692;2023-05-31T04:46:06;12.30;99.90
3758;DHT22;1894;51.038;13.692;2023-05-31T04:48:39;12.50;99.90
3758;DHT22;1894;51.038;13.692;2023-05-31T04:51:07;12.60;99.90
3758;DHT22;1894;51.038;13.692;2023-05-31T04:53:34;12.80;99.90
3758;DHT22;1894;51.038;13.692;2023-05-31T04:56:02;12.90;99.90
3758;DHT22;1894;51.038;13.692;2023-05-31T04:58:32;12.80;99.90
3758;DHT22;1894;51.038;13.692;2023-05-31T05:00:59;13.00;99.90
3758;DHT22;1894;51.038;13.692;2023-05-31T05:03:36;13.20;99.90
3758;DHT22;1894;51.038;13.692;2023-05-31T05:06:17;13.50;99.90
3758;DHT22;1894;51.038;13.692;2023-05-31T05:08:46;13.70;99.90
3758;DHT22;1894;51.038;13.692;2023-05-31T05:11:14;13.60;99.90
3758;DHT22;1894;51.038;13.692;2023-05-31T05:13:42;13.60;99.90
3758;DHT22;1894;51.038;13.692;2023-05-31T05:16:09;13.90;99.90
3758;DHT22;1894;51.038;13.692;2023-05-31T05:18:37;14.10;99.90
3758;DHT22;1894;51.038;13.692;2023-05-31T05:21:04;14.20;99.90
3758;DHT22;1894;51.038;13.692;2023-05-31T05:23:34;14.50;99.90
3758;DHT22;1894;51.038;13.692;2023-05-31T05:26:03;14.70;99.90
3758;DHT22;1894;51.038;13.692;2023-05-31T05:28:30;14.80;99.90
3758;DHT22;1894;51.038;13.692;2023-05-31T05:30:58;14.90;99.90
3758;DHT22;1894;51.038;13.692;2023-05-31T05:33:28;14.90;99.90
3758;DHT22;1894;51.038;13.692;2023-05-31T05:35:56;15.10;99.90
3758;DHT22;1894;51.038;13.692;2023-05-31T05:38:23;15.40;99.90
3758;DHT22;1894;51.038;13.692;2023-05-31T05:40:51;15.50;99.90
3758;DHT22;1894;51.038;13.692;2023-05-31T05:43:18;15.50;99.90
3758;DHT22;1894;51.038;13.692;2023-05-31T05:46:02;15.50;99.90
3758;DHT22;1894;51.038;13.692;2023-05-31T05:48:29;15.70;99.90
3758;DHT22;1894;51.038;13.692;2023-05-31T05:50:57;15.90;99.80
3758;DHT22;1894;51.038;13.692;2023-05-31T05:53:27;16.00;99.90
3758;DHT22;1894;51.038;13.692;2023-05-31T05:55:55;15.80;99.20
3758;DHT22;1894;51.038;13.692;2023-05-31T05:58:27;16.10;99.40
3758;DHT22;1894;51.038;13.692;2023-05-31T06:01:03;16.40;97.90
3758;DHT22;1894;51.038;13.692;2023-05-31T06:03:34;16.60;97.80
3758;DHT22;1894;51.038;13.692;2023-05-31T06:06:03;16.70;97.00
3758;DHT22;1894;51.038;13.692;2023-05-31T06:08:31;16.70;96.90
3758;DHT22;1894;51.038;13.692;2023-05-31T06:10:58;16.70;96.80
3758;DHT22;1894;51.038;13.692;2023-05-31T06:13:25;16.80;97.40
3758;DHT22;1894;51.038;13.692;2023-05-31T06:15:53;17.20;96.30
3758;DHT22;1894;51.038;13.692;2023-05-31T06:18:20;17.40;95.50
3758;DHT22;1894;51.038;13.692;2023-05-31T06:20:48;17.40;95.50
3758;DHT22;1894;51.038;13.692;2023-05-31T06:23:15;17.40;95.10
3758;DHT22;1894;51.038;13.692;2023-05-31T06:25:42;17.20;95.30
3758;DHT22;1894;51.038;13.692;2023-05-31T06:28:09;17.30;94.90
3758;DHT22;1894;51.038;13.692;2023-05-31T06:30:38;17.60;95.10
3758;DHT22;1894;51.038;13.692;2023-05-31T06:33:05;17.70;95.30
3758;DHT22;1894;51.038;13.692;2023-05-31T06:35:32;18.00;93.00
3758;DHT22;1894;51.038;13.692;2023-05-31T06:38:00;18.10;92.70
3758;DHT22;1894;51.038;13.692;2023-05-31T06:40:27;18.10;92.90
3758;DHT22;1894;51.038;13.692;2023-05-31T06:42:55;17.80;93.60
3758;DHT22;1894;51.038;13.692;2023-05-31T06:45:41;17.70;93.00
3758;DHT22;1894;51.038;13.692;2023-05-31T06:48:17;17.90;93.10
3758;DHT22;1894;51.038;13.692;2023-05-31T06:51:03;17.90;92.70
3758;DHT22;1894;51.038;13.692;2023-05-31T06:53:33;18.30;92.90
3758;DHT22;1894;51.038;13.692;2023-05-31T06:56:14;18.70;92.20
3758;DHT22;1894;51.038;13.692;2023-05-31T06:58:42;18.80;91.30
3758;DHT22;1894;51.038;13.692;2023-05-31T07:01:10;18.90;91.00
3758;DHT22;1894;51.038;13.692;2023-05-31T07:03:37;18.70;90.70
3758;DHT22;1894;51.038;13.692;2023-05-31T07:06:04;19.20;90.00
3758;DHT22;1894;51.038;13.692;2023-05-31T07:08:31;19.50;88.30
3758;DHT22;1894;51.038;13.692;2023-05-31T07:11:30;19.60;89.70
3758;DHT22;1894;51.038;13.692;2023-05-31T07:13:58;19.40;88.40
3758;DHT22;1894;51.038;13.692;2023-05-31T07:16:28;19.70;87.70
3758;DHT22;1894;51.038;13.692;2023-05-31T07:18:58;19.90;84.90
3758;DHT22;1894;51.038;13.692;2023-05-31T07:21:25;19.90;85.00
3758;DHT22;1894;51.038;13.692;2023-05-31T07:23:54;20.00;82.90
3758;DHT22;1894;51.038;13.692;2023-05-31T07:26:22;20.10;82.00
3758;DHT22;1894;51.038;13.692;2023-05-31T07:28:49;19.90;83.10
3758;DHT22;1894;51.038;13.692;2023-05-31T07:31:20;20.10;82.20
3758;DHT22;1894;51.038;13.692;2023-05-31T07:33:48;20.10;82.30
3758;DHT22;1894;51.038;13.692;2023-05-31T07:36:15;20.30;82.60
3758;DHT22;1894;51.038;13.692;2023-05-31T07:38:42;20.60;79.00
3758;DHT22;1894;51.038;13.692;2023-05-31T07:41:09;20.60;76.90
3758;DHT22;1894;51.038;13.692;2023-05-31T07:43:36;20.60;76.80
3758;DHT22;1894;51.038;13.692;2023-05-31T07:46:06;20.50;78.40
3758;DHT22;1894;51.038;13.692;2023-05-31T07:48:33;20.60;78.40
3758;DHT22;1894;51.038;13.692;2023-05-31T07:51:00;20.80;76.30
3758;DHT22;1894;51.038;13.692;2023-05-31T07:53:28;20.80;76.70
3758;DHT22;1894;51.038;13.692;2023-05-31T07:55:55;20.60;77.00
3758;DHT22;1894;51.038;13.692;2023-05-31T07:58:22;20.80;75.10
3758;DHT22;1894;51.038;13.692;2023-05-31T08:00:49;21.20;72.70
3758;DHT22;1894;51.038;13.692;2023-05-31T08:03:19;21.30;72.50
3758;DHT22;1894;51.038;13.692;2023-05-31T08:05:46;21.40;71.40
3758;DHT22;1894;51.038;13.692;2023-05-31T08:08:16;21.40;71.10
3758;DHT22;1894;51.038;13.692;2023-05-31T08:10:43;21.00;71.70
3758;DHT22;1894;51.038;13.692;2023-05-31T08:13:10;20.80;71.90
3758;DHT22;1894;51.038;13.692;2023-05-31T08:15:37;20.90;72.60
3758;DHT22;1894;51.038;13.692;2023-05-31T08:18:04;20.90;72.70
3758;DHT22;1894;51.038;13.692;2023-05-31T08:20:33;20.90;70.80
3758;DHT22;1894;51.038;13.692;2023-05-31T08:23:03;21.10;71.70
3758;DHT22;1894;51.038;13.692;2023-05-31T08:25:30;21.10;71.00
3758;DHT22;1894;51.038;13.692;2023-05-31T08:27:58;21.40;69.40
3758;DHT22;1894;51.038;13.692;2023-05-31T08:30:25;21.60;66.40
3758;DHT22;1894;51.038;13.692;2023-05-31T08:32:52;21.60;68.40
3758;DHT22;1894;51.038;13.692;2023-05-31T08:35:20;21.80;72.20
3758;DHT22;1894;51.038;13.692;2023-05-31T08:37:47;21.60;64.90
3758;DHT22;1894;51.038;13.692;2023-05-31T08:40:14;22.10;64.80
3758;DHT22;1894;51.038;13.692;2023-05-31T08:42:53;22.10;65.20
3758;DHT22;1894;51.038;13.692;2023-05-31T08:45:22;22.30;65.00
3758;DHT22;1894;51.038;13.692;2023-05-31T08:48:09;22.40;65.60
3758;DHT22;1894;51.038;13.692;2023-05-31T08:50:38;22.50;64.70
3758;DHT22;1894;51.038;13.692;2023-05-31T08:53:07;22.30;64.30
3758;DHT22;1894;51.038;13.692;2023-05-31T08:55:35;22.20;64.60
3758;DHT22;1894;51.038;13.692;2023-05-31T08:58:04;22.30;63.40
3758;DHT22;1894;51.038;13.692;2023-05-31T09:00:32;22.40;63.70
3758;DHT22;1894;51.038;13.692;2023-05-31T09:03:05;22.00;64.60
3758;DHT22;1894;51.038;13.692;2023-05-31T09:05:33;22.00;65.70
3758;DHT22;1894;51.038;13.692;2023-05-31T09:08:00;21.90;63.20
3758;DHT22;1894;51.038;13.692;2023-05-31T09:10:28;21.70;63.10
3758;DHT22;1894;51.038;13.692;2023-05-31T09:12:56;22.10;62.10
3758;DHT22;1894;51.038;13.692;2023-05-31T09:15:24;22.50;63.00
3758;DHT22;1894;51.038;13.692;2023-05-31T09:17:52;22.50;61.40
3758;DHT22;1894;51.038;13.692;2023-05-31T09:20:19;22.60;61.10
3758;DHT22;1894;51.038;13.692;2023-05-31T09:22:50;22.80;59.70
3758;DHT22;1894;51.038;13.692;2023-05-31T09:25:17;22.80;59.70
3758;DHT22;1894;51.038;13.692;2023-05-31T09:27:45;22.20;60.30
3758;DHT22;1894;51.038;13.692;2023-05-31T09:30:13;21.70;61.10
3758;DHT22;1894;51.038;13.692;2023-05-31T09:32:41;21.90;61.20
3758;DHT22;1894;51.038;13.692;2023-05-31T09:35:14;22.00;64.30
3758;DHT22;1894;51.038;13.692;2023-05-31T09:37:46;22.50;61.70
3758;DHT22;1894;51.038;13.692;2023-05-31T09:40:23;22.80;61.20
3758;DHT22;1894;51.038;13.692;2023-05-31T09:42:52;22.80;61.00
3758;DHT22;1894;51.038;13.692;2023-05-31T09:45:20;22.90;59.90
3758;DHT22;1894;51.038;13.692;2023-05-31T09:47:48;23.00;60.90
3758;DHT22;1894;51.038;13.692;2023-05-31T09:50:20;23.20;61.50
3758;DHT22;1894;51.038;13.692;2023-05-31T09:52:50;22.90;61.00
3758;DHT22;1894;51.038;13.692;2023-05-31T09:55:21;22.80;61.30
3758;DHT22;1894;51.038;13.692;2023-05-31T09:57:51;23.20;60.80
3758;DHT22;1894;51.038;13.692;2023-05-31T10:00:19;23.20;59.70
3758;DHT22;1894;51.038;13.692;2023-05-31T10:02:49;23.30;60.30
3758;DHT22;1894;51.038;13.692;2023-05-31T10:05:17;23.40;59.10
3758;DHT22;1894;51.038;13.692;2023-05-31T10:07:46;23.50;60.20
3758;DHT22;1894;51.038;13.692;2023-05-31T10:10:14;23.30;62.50
3758;DHT22;1894;51.038;13.692;2023-05-31T10:12:54;23.00;59.60
3758;DHT22;1894;51.038;13.692;2023-05-31T10:15:25;23.00;60.10
3758;DHT22;1894;51.038;13.692;2023-05-31T10:18:15;23.30;58.60
3758;DHT22;1894;51.038;13.692;2023-05-31T10:20:58;23.40;61.10
3758;DHT22;1894;51.038;13.692;2023-05-31T10:23:27;23.30;60.80
3758;DHT22;1894;51.038;13.692;2023-05-31T10:26:16;23.30;60.30
3758;DHT22;1894;51.038;13.692;2023-05-31T10:31:52;23.40;58.60
3758;DHT22;1894;51.038;13.692;2023-05-31T10:34:25;23.50;59.20
3758;DHT22;1894;51.038;13.692;2023-05-31T10:36:54;23.60;56.80
3758;DHT22;1894;51.038;13.692;2023-05-31T10:39:38;23.20;56.20
3758;DHT22;1894;51.038;13.692;2023-05-31T10:42:54;22.90;59.50
3758;DHT22;1894;51.038;13.692;2023-05-31T10:45:26;23.40;60.80
3758;DHT22;1894;51.038;13.692;2023-05-31T10:50:26;23.70;52.40
3758;DHT22;1894;51.038;13.692;2023-05-31T10:53:11;23.80;52.90
3758;DHT22;1894;51.038;13.692;2023-05-31T10:55:43;23.80;53.20
3758;DHT22;1894;51.038;13.692;2023-05-31T11:01:02;23.60;53.20
3758;DHT22;1894;51.038;13.692;2023-05-31T11:03:33;23.90;56.00
3758;DHT22;1894;51.038;13.692;2023-05-31T11:06:03;23.90;55.40
3758;DHT22;1894;51.038;13.692;2023-05-31T11:08:33;24.10;54.90
3758;DHT22;1894;51.038;13.692;2023-05-31T11:13:59;24.10;54.00
3758;DHT22;1894;51.038;13.692;2023-05-31T11:16:30;24.10;55.20
3758;DHT22;1894;51.038;13.692;2023-05-31T11:19:05;24.30;53.60
3758;DHT22;1894;51.038;13.692;2023-05-31T11:22:15;24.30;55.50
3758;DHT22;1894;51.038;13.692;2023-05-31T11:24:51;24.30;52.20
3758;DHT22;1894;51.038;13.692;2023-05-31T11:27:20;24.30;56.10
3758;DHT22;1894;51.038;13.692;2023-05-31T11:32:19;24.30;53.20
3758;DHT22;1894;51.038;13.692;2023-05-31T11:37:17;24.50;52.50
3758;DHT22;1894;51.038;13.692;2023-05-31T11:39:45;24.60;53.60
3758;DHT22;1894;51.038;13.692;2023-05-31T11:42:13;24.70;51.70
3758;DHT22;1894;51.038;13.692;2023-05-31T11:44:45;24.70;51.60
3758;DHT22;1894;51.038;13.692;2023-05-31T11:47:20;25.20;51.30
3758;DHT22;1894;51.038;13.692;2023-05-31T11:49:47;25.50;49.20
3758;DHT22;1894;51.038;13.692;2023-05-31T11:52:17;26.20;45.60
3758;DHT22;1894;51.038;13.692;2023-05-31T11:54:46;26.90;47.50
3758;DHT22;1894;51.038;13.692;2023-05-31T11:57:16;28.10;45.80
3758;DHT22;1894;51.038;13.692;2023-05-31T11:59:43;28.90;43.80
3758;DHT22;1894;51.038;13.692;2023-05-31T12:02:11;30.40;39.70
3758;DHT22;1894;51.038;13.692;2023-05-31T12:04:43;31.70;36.60
3758;DHT22;1894;51.038;13.692;2023-05-31T12:07:12;32.20;34.90
3758;DHT22;1894;51.038;13.692;2023-05-31T12:09:42;32.90;34.50
3758;DHT22;1894;51.038;13.692;2023-05-31T12:12:11;34.10;32.10
3758;DHT22;1894;51.038;13.692;2023-05-31T12:14:42;35.20;29.70
3758;DHT22;1894;51.038;13.692;2023-05-31T12:17:15;36.10;28.40
3758;DHT22;1894;51.038;13.692;2023-05-31T12:19:42;36.10;28.00
3758;DHT22;1894;51.038;13.692;2023-05-31T12:22:09;35.40;29.20
3758;DHT22;1894;51.038;13.692;2023-05-31T12:24:36;37.60;24.90
3758;DHT22;1894;51.038;13.692;2023-05-31T12:27:05;37.10;26.10
3758;DHT22;1894;51.038;13.692;2023-05-31T12:29:32;37.70;25.00
3758;DHT22;1894;51.038;13.692;2023-05-31T12:32:05;39.40;23.90
3758;DHT22;1894;51.038;13.692;2023-05-31T12:34:34;38.80;22.70
3758;DHT22;1894;51.038;13.692;2023-05-31T12:37:09;36.20;23.50
3758;DHT22;1894;51.038;13.692;2023-05-31T12:39:37;33.10;25.60
3758;DHT22;1894;51.038;13.692;2023-05-31T12:42:06;35.20;26.20
3758;DHT22;1894;51.038;13.692;2023-05-31T12:44:34;37.80;26.10
3758;DHT22;1894;51.038;13.692;2023-05-31T12:47:11;38.10;23.70
3758;DHT22;1894;51.038;13.692;2023-05-31T12:49:38;39.80;22.70
3758;DHT22;1894;51.038;13.692;2023-05-31T12:52:10;41.00;23.00
3758;DHT22;1894;51.038;13.692;2023-05-31T12:54:38;39.30;22.60
3758;DHT22;1894;51.038;13.692;2023-05-31T12:57:07;39.90;21.50
3758;DHT22;1894;51.038;13.692;2023-05-31T12:59:36;39.60;23.00
3758;DHT22;1894;51.038;13.692;2023-05-31T13:02:04;40.80;21.10
3758;DHT22;1894;51.038;13.692;2023-05-31T13:04:32;41.90;20.70
3758;DHT22;1894;51.038;13.692;2023-05-31T13:07:00;42.00;21.10
3758;DHT22;1894;51.038;13.692;2023-05-31T13:09:29;43.00;20.00
3758;DHT22;1894;51.038;13.692;2023-05-31T13:11:56;42.70;20.10
3758;DHT22;1894;51.038;13.692;2023-05-31T13:14:23;42.40;20.00
3758;DHT22;1894;51.038;13.692;2023-05-31T13:16:52;42.40;20.20
3758;DHT22;1894;51.038;13.692;2023-05-31T13:19:20;43.40;18.80
3758;DHT22;1894;51.038;13.692;2023-05-31T13:21:47;40.90;20.10
3758;DHT22;1894;51.038;13.692;2023-05-31T13:24:14;42.10;20.90
3758;DHT22;1894;51.038;13.692;2023-05-31T13:26:42;40.50;20.10
3758;DHT22;1894;51.038;13.692;2023-05-31T13:29:09;42.70;18.30
3758;DHT22;1894;51.038;13.692;2023-05-31T13:31:36;42.70;18.40
3758;DHT22;1894;51.038;13.692;2023-05-31T13:34:03;42.50;19.20
3758;DHT22;1894;51.038;13.692;2023-05-31T13:36:30;42.70;18.00
3758;DHT22;1894;51.038;13.692;2023-05-31T13:38:57;42.60;19.50
3758;DHT22;1894;51.038;13.692;2023-05-31T13:41:24;43.20;19.30
3758;DHT22;1894;51.038;13.692;2023-05-31T13:43:51;41.50;19.80
3758;DHT22;1894;51.038;13.692;2023-05-31T13:46:18;42.10;19.10
3758;DHT22;1894;51.038;13.692;2023-05-31T13:48:45;43.30;18.70
3758;DHT22;1894;51.038;13.692;2023-05-31T13:51:12;41.20;19.20
3758;DHT22;1894;51.038;13.692;2023-05-31T13:53:39;42.00;19.00
3758;DHT22;1894;51.038;13.692;2023-05-31T13:56:07;42.70;19.50
3758;DHT22;1894;51.038;13.692;2023-05-31T13:58:36;42.00;17.90
3758;DHT22;1894;51.038;13.692;2023-05-31T14:01:07;43.60;17.70
3758;DHT22;1894;51.038;13.692;2023-05-31T14:03:35;43.20;16.80
3758;DHT22;1894;51.038;13.692;2023-05-31T14:06:03;42.70;18.60
3758;DHT22;1894;51.038;13.692;2023-05-31T14:08:30;42.70;17.10
3758;DHT22;1894;51.038;13.692;2023-05-31T14:10:57;43.10;18.30
3758;DHT22;1894;51.038;13.692;2023-05-31T14:13:25;44.00;18.00
3758;DHT22;1894;51.038;13.692;2023-05-31T14:15:52;44.40;18.40
3758;DHT22;1894;51.038;13.692;2023-05-31T14:18:19;44.10;18.00
3758;DHT22;1894;51.038;13.692;2023-05-31T14:20:46;44.60;17.20
3758;DHT22;1894;51.038;13.692;2023-05-31T14:23:14;43.70;17.70
3758;DHT22;1894;51.038;13.692;2023-05-31T14:25:41;43.10;18.10
3758;DHT22;1894;51.038;13.692;2023-05-31T14:28:08;44.30;18.50
3758;DHT22;1894;51.038;13.692;2023-05-31T14:30:35;45.10;18.00
3758;DHT22;1894;51.038;13.692;2023-05-31T14:33:02;44.90;17.90
3758;DHT22;1894;51.038;13.692;2023-05-31T14:35:30;45.30;16.90
3758;DHT22;1894;51.038;13.692;2023-05-31T14:37:58;45.10;18.10
3758;DHT22;1894;51.038;13.692;2023-05-31T14:40:45;45.20;17.60
3758;DHT22;1894;51.038;13.692;2023-05-31T14:43:15;45.20;17.00
3758;DHT22;1894;51.038;13.692;2023-05-31T14:45:42;45.50;16.90
3758;DHT22;1894;51.038;13.692;2023-05-31T14:48:09;44.60;18.10
3758;DHT22;1894;51.038;13.692;2023-05-31T14:50:36;43.30;18.50
3758;DHT22;1894;51.038;13.692;2023-05-31T14:53:03;43.10;18.10
3758;DHT22;1894;51.038;13.692;2023-05-31T14:55:30;42.00;18.90
3758;DHT22;1894;51.038;13.692;2023-05-31T14:57:57;42.50;19.00
3758;DHT22;1894;51.038;13.692;2023-05-31T15:00:24;42.70;18.70
3758;DHT22;1894;51.038;13.692;2023-05-31T15:02:51;43.60;18.20
3758;DHT22;1894;51.038;13.692;2023-05-31T15:05:18;43.60;18.60
3758;DHT22;1894;51.038;13.692;2023-05-31T15:07:46;43.20;18.50
3758;DHT22;1894;51.038;13.692;2023-05-31T15:10:13;41.30;18.40
3758;DHT22;1894;51.038;13.692;2023-05-31T15:12:40;41.50;18.80
3758;DHT22;1894;51.038;13.692;2023-05-31T15:15:07;42.50;19.80
3758;DHT22;1894;51.038;13.692;2023-05-31T15:17:35;43.70;18.60
3758;DHT22;1894;51.038;13.692;2023-05-31T15:20:02;44.70;17.90
3758;DHT22;1894;51.038;13.692;2023-05-31T15:22:29;44.70;17.30
3758;DHT22;1894;51.038;13.692;2023-05-31T15:24:56;45.20;16.70
3758;DHT22;1894;51.038;13.692;2023-05-31T15:27:23;45.10;17.90
3758;DHT22;1894;51.038;13.692;2023-05-31T15:29:50;44.80;17.10
3758;DHT22;1894;51.038;13.692;2023-05-31T15:32:17;44.90;17.00
3758;DHT22;1894;51.038;13.692;2023-05-31T15:34:44;44.50;17.30
3758;DHT22;1894;51.038;13.692;2023-05-31T15:37:11;44.00;17.40
3758;DHT22;1894;51.038;13.692;2023-05-31T15:39:38;42.30;17.80
3758;DHT22;1894;51.038;13.692;2023-05-31T15:42:05;42.10;18.20
3758;DHT22;1894;51.038;13.692;2023-05-31T15:44:33;41.10;19.10
3758;DHT22;1894;51.038;13.692;2023-05-31T15:47:00;40.10;19.50
3758;DHT22;1894;51.038;13.692;2023-05-31T15:49:27;42.60;18.20
3758;DHT22;1894;51.038;13.692;2023-05-31T15:51:54;41.70;17.90
3758;DHT22;1894;51.038;13.692;2023-05-31T15:54:21;43.40;17.80
3758;DHT22;1894;51.038;13.692;2023-05-31T15:56:48;44.00;17.90
3758;DHT22;1894;51.038;13.692;2023-05-31T15:59:15;42.10;19.00
3758;DHT22;1894;51.038;13.692;2023-05-31T16:01:42;42.90;19.00
3758;DHT22;1894;51.038;13.692;2023-05-31T16:04:09;44.50;17.80
3758;DHT22;1894;51.038;13.692;2023-05-31T16:06:36;43.00;18.50
3758;DHT22;1894;51.038;13.692;2023-05-31T16:09:04;42.80;18.00
3758;DHT22;1894;51.038;13.692;2023-05-31T16:11:31;43.90;18.30
3758;DHT22;1894;51.038;13.692;2023-05-31T16:13:59;43.00;17.70
3758;DHT22;1894;51.038;13.692;2023-05-31T16:16:27;43.50;17.60
3758;DHT22;1894;51.038;13.692;2023-05-31T16:18:54;42.70;17.90